Time;durP1;ratioP1;P1;durP2;ratioP2;P2;SDS_P1;SDS_P2;PMS_P1;PMS_P2;Temp;Humidity;BMP_temperature;BMP_pressure;BME280_temperature;BME280_humidity;BME280_pressure;Samples;Min_cycle;Max_cycle;Signal;HPM_P1;HPM_P2
2023/08/31 00:01:29;;;;;;;1999.90;999.90;;;14.00;99.90;;;;;;5012882;28;20845;-67
2023/08/31 00:03:55;;;;;;;1999.90;999.90;;;14.00;99.90;;;;;;5013144;28;20493;-67
2023/08/31 00:06:21;;;;;;;1999.90;999.90;;;13.80;99.90;;;;;;5012972;28;20564;-67
2023/08/31 00:08:47;;;;;;;1999.90;999.90;;;14.00;99.90;;;;;;5013209;28;20600;-67
2023/08/31 00:11:14;;;;;;;1999.90;999.90;;;14.10;99.90;;;;;;5012815;28;20549;-67
2023/08/31 00:13:40;;;;;;;1999.90;999.90;;;14.00;99.90;;;;;;5013032;28;20197;-67
2023/08/31 00:16:05;;;;;;;1999.90;999.90;;;14.00;99.90;;;;;;5012642;28;20884;-67
2023/08/31 00:18:31;;;;;;;1999.90;999.90;;;14.00;99.90;;;;;;5012786;28;20543;-66
2023/08/31 00:20:57;;;;;;;1999.90;999.90;;;14.00;99.90;;;;;;5012097;28;20230;-66
2023/08/31 00:23:23;;;;;;;1999.90;999.90;;;14.00;99.90;;;;;;5013020;28;20415;-67
2023/08/31 00:25:49;;;;;;;1999.90;999.90;;;14.00;99.90;;;;;;5012766;28;20407;-67
2023/08/31 00:28:18;;;;;;;1999.90;999.90;;;14.00;99.90;;;;;;5012602;28;20669;-67
2023/08/31 00:30:45;;;;;;;1999.90;999.90;;;14.00;99.90;;;;;;5012774;28;20180;-67
2023/08/31 00:33:13;;;;;;;1999.90;999.90;;;14.10;99.90;;;;;;5012240;28;20418;-67
2023/08/31 00:35:45;;;;;;;1999.90;999.90;;;14.00;99.90;;;;;;5012450;28;20857;-67
2023/08/31 00:38:11;;;;;;;1999.90;999.90;;;14.00;99.90;;;;;;5012512;28;20965;-67
2023/08/31 00:40:46;;;;;;;1999.90;999.90;;;14.00;99.90;;;;;;5012470;28;20417;-67
2023/08/31 00:43:15;;;;;;;1999.90;999.90;;;14.00;99.90;;;;;;5012236;28;20411;-67
2023/08/31 00:45:41;;;;;;;1999.90;999.90;;;13.90;99.90;;;;;;5012406;28;20406;-67
2023/08/31 00:48:08;;;;;;;1999.90;999.90;;;13.90;99.90;;;;;;5012314;28;20438;-67
2023/08/31 00:50:34;;;;;;;1999.90;999.90;;;13.90;99.90;;;;;;5012344;28;20415;-66
2023/08/31 00:52:59;;;;;;;1999.90;999.90;;;13.80;99.90;;;;;;5012081;28;20418;-67
2023/08/31 00:55:25;;;;;;;1999.90;999.90;;;13.80;99.90;;;;;;5012246;28;20975;-67
2023/08/31 00:57:52;;;;;;;1999.90;999.90;;;13.80;99.90;;;;;;5012305;28;20197;-67
2023/08/31 01:00:17;;;;;;;1999.90;999.90;;;13.70;99.90;;;;;;5012173;28;20835;-67
2023/08/31 01:03:01;;;;;;;1999.90;999.90;;;13.60;99.90;;;;;;5011948;28;20527;-67
2023/08/31 01:05:35;;;;;;;1999.90;999.90;;;13.60;99.90;;;;;;5012248;28;20320;-67
2023/08/31 01:08:17;;;;;;;1999.90;999.90;;;13.60;99.90;;;;;;5012109;28;20458;-67
2023/08/31 01:11:03;;;;;;;1999.90;999.90;;;13.60;99.90;;;;;;5012084;28;20473;-67
2023/08/31 01:13:31;;;;;;;1999.90;999.90;;;13.50;99.90;;;;;;5012321;28;20411;-67
2023/08/31 01:16:03;;;;;;;1999.90;999.90;;;13.50;99.90;;;;;;5011950;28;20545;-66
2023/08/31 01:18:29;;;;;;;1999.90;999.90;;;13.50;99.90;;;;;;5012041;28;20432;-66
2023/08/31 01:21:17;;;;;;;1999.90;999.90;;;13.40;99.90;;;;;;5011763;28;20432;-67
2023/08/31 01:23:53;;;;;;;1999.90;999.90;;;13.40;99.90;;;;;;5012278;28;20418;-67
2023/08/31 01:26:19;;;;;;;1999.90;999.90;;;13.00;99.90;;;;;;5012026;28;20510;-67
2023/08/31 01:28:46;;;;;;;1999.90;999.90;;;13.30;99.90;;;;;;5012015;28;20415;-67
2023/08/31 01:31:12;;;;;;;1999.90;999.90;;;13.20;99.90;;;;;;5011728;28;20421;-67
2023/08/31 01:33:38;;;;;;;1999.90;999.90;;;13.20;99.90;;;;;;5014822;28;20426;-67
2023/08/31 01:36:11;;;;;;;1999.90;999.90;;;13.30;99.90;;;;;;5015818;28;20716;-67
2023/08/31 01:38:39;;;;;;;1999.90;999.90;;;13.20;99.90;;;;;;5015822;28;20608;-67
2023/08/31 01:41:12;;;;;;;1999.90;999.90;;;13.10;99.90;;;;;;5015634;28;20784;-67
2023/08/31 01:43:40;;;;;;;1999.90;999.90;;;13.20;99.90;;;;;;5015743;28;20402;-67
2023/08/31 01:46:07;;;;;;;1999.90;999.90;;;13.10;99.90;;;;;;5015663;28;20422;-67
2023/08/31 01:48:40;;;;;;;1999.90;999.90;;;13.10;99.90;;;;;;5015453;28;20533;-67
2023/08/31 01:51:06;;;;;;;1999.90;999.90;;;13.00;99.90;;;;;;5015303;28;20420;-66
2023/08/31 01:53:32;;;;;;;1999.90;999.90;;;13.00;99.90;;;;;;5015667;28;20962;-67
2023/08/31 01:55:57;;;;;;;1999.90;999.90;;;13.00;99.90;;;;;;5015449;28;20448;-67
2023/08/31 01:58:23;;;;;;;1999.90;999.90;;;13.00;99.90;;;;;;5015651;28;20192;-67
2023/08/31 02:00:48;;;;;;;1999.90;999.90;;;13.00;99.90;;;;;;5015306;28;20258;-67
2023/08/31 02:03:14;;;;;;;1999.90;999.90;;;13.00;99.90;;;;;;5015109;28;20176;-67
2023/08/31 02:05:39;;;;;;;1999.90;999.90;;;12.90;99.90;;;;;;5015379;28;20177;-67
2023/08/31 02:08:05;;;;;;;1999.90;999.90;;;12.90;99.90;;;;;;5015236;28;20200;-67
2023/08/31 02:10:31;;;;;;;1999.90;999.90;;;12.90;99.90;;;;;;5015202;28;20190;-66
2023/08/31 02:12:56;;;;;;;1999.90;999.90;;;12.90;99.90;;;;;;5014866;28;20255;-67
2023/08/31 02:15:22;;;;;;;1999.90;999.90;;;12.80;99.90;;;;;;5015105;28;20258;-67
2023/08/31 02:17:48;;;;;;;1999.90;999.90;;;12.80;99.90;;;;;;5014971;28;20207;-67
2023/08/31 02:20:14;;;;;;;1999.90;999.90;;;12.80;99.90;;;;;;5015047;28;20172;-67
2023/08/31 02:22:40;;;;;;;1999.90;999.90;;;12.80;99.90;;;;;;5014718;28;20243;-67
2023/08/31 02:25:05;;;;;;;1999.90;999.90;;;12.80;99.90;;;;;;5014945;28;20423;-67
2023/08/31 02:27:31;;;;;;;1999.90;999.90;;;12.80;99.90;;;;;;5015265;28;20436;-69
2023/08/31 02:29:57;;;;;;;1999.90;999.90;;;12.90;99.90;;;;;;5014862;28;20199;-66
2023/08/31 02:32:22;;;;;;;1999.90;999.90;;;12.80;99.90;;;;;;5014689;28;20170;-66
2023/08/31 02:34:49;;;;;;;1999.90;999.90;;;12.80;99.90;;;;;;5014699;28;20414;-67
2023/08/31 02:37:14;;;;;;;1999.90;999.90;;;12.80;99.90;;;;;;5014613;28;20206;-67
2023/08/31 02:39:40;;;;;;;1999.90;999.90;;;12.80;99.90;;;;;;5014703;28;20430;-66
2023/08/31 02:42:05;;;;;;;1999.90;999.90;;;12.80;99.90;;;;;;5014372;28;20541;-67
2023/08/31 02:44:32;;;;;;;1999.90;999.90;;;12.90;99.90;;;;;;5014141;28;20199;-66
2023/08/31 02:46:57;;;;;;;1999.90;999.90;;;13.00;99.90;;;;;;5014471;28;20184;-66
2023/08/31 02:49:23;;;;;;;1999.90;999.90;;;13.00;99.90;;;;;;5014510;28;20412;-66
2023/08/31 02:51:49;;;;;;;1999.90;999.90;;;13.00;99.90;;;;;;5014178;28;20286;-66
2023/08/31 02:54:15;;;;;;;1999.90;999.90;;;13.00;99.90;;;;;;5014414;28;20183;-67
2023/08/31 02:56:42;;;;;;;1999.90;999.90;;;13.00;99.90;;;;;;5014328;28;20462;-66
2023/08/31 02:59:07;;;;;;;1999.90;999.90;;;13.00;99.90;;;;;;5014280;28;20409;-66
2023/08/31 03:01:33;;;;;;;1999.90;999.90;;;13.00;99.90;;;;;;5014072;28;20407;-66
2023/08/31 03:03:58;;;;;;;1999.90;999.90;;;13.00;99.90;;;;;;5014355;28;20180;-66
2023/08/31 03:06:25;;;;;;;1999.90;999.90;;;13.20;99.90;;;;;;5014071;28;20575;-69
2023/08/31 03:08:51;;;;;;;1999.90;999.90;;;13.00;99.90;;;;;;5014194;28;20207;-68
2023/08/31 03:11:16;;;;;;;1999.90;999.90;;;13.00;99.90;;;;;;5013860;28;20452;-68
2023/08/31 03:13:42;;;;;;;1999.90;999.90;;;13.00;99.90;;;;;;5013991;28;20186;-67
2023/08/31 03:16:07;;;;;;;1999.90;999.90;;;13.10;99.90;;;;;;5013895;28;20279;-68
2023/08/31 03:18:33;;;;;;;1999.90;999.90;;;13.20;99.90;;;;;;5013954;28;20196;-68
2023/08/31 03:20:59;;;;;;;1999.90;999.90;;;13.20;99.90;;;;;;5013759;28;20179;-68
2023/08/31 03:23:25;;;;;;;1999.90;999.90;;;13.30;99.90;;;;;;5013915;28;20518;-68
2023/08/31 03:25:50;;;;;;;1999.90;999.90;;;13.20;99.90;;;;;;5013826;28;20173;-68
2023/08/31 03:28:16;;;;;;;1999.90;999.90;;;13.30;99.90;;;;;;5013724;28;20432;-68
2023/08/31 03:30:44;;;;;;;1999.90;999.90;;;;;;;;;;5023829;28;20240;-68
2023/08/31 03:33:11;;;;;;;1999.90;999.90;;;13.40;99.90;;;;;;5024467;28;20269;-68
2023/08/31 03:35:36;;;;;;;1999.90;999.90;;;13.40;99.90;;;;;;5024816;28;20459;-69
2023/08/31 03:38:02;;;;;;;1999.90;999.90;;;13.30;99.90;;;;;;5024332;28;20445;-68
2023/08/31 03:40:28;;;;;;;1999.90;999.90;;;13.30;99.90;;;;;;5039482;28;20176;-68
2023/08/31 03:42:54;;;;;;;1999.90;999.90;;;13.30;99.90;;;;;;5024108;28;20445;-68
2023/08/31 03:45:20;;;;;;;1999.90;999.90;;;13.20;99.90;;;;;;5025610;28;20447;-67
2023/08/31 03:47:46;;;;;;;1999.90;999.90;;;13.20;99.90;;;;;;5025249;28;20195;-68
2023/08/31 03:50:11;;;;;;;1999.90;999.90;;;13.20;99.90;;;;;;5025642;28;20411;-68
2023/08/31 03:52:37;;;;;;;1999.90;999.90;;;13.10;99.90;;;;;;5024999;28;20182;-67
2023/08/31 03:55:03;;;;;;;1999.90;999.90;;;12.90;99.90;;;;;;5024137;28;20177;-68
2023/08/31 03:57:28;;;;;;;1999.90;999.90;;;12.90;99.90;;;;;;5024477;28;20210;-68
2023/08/31 03:59:54;;;;;;;1999.90;999.90;;;12.80;99.90;;;;;;5024531;28;20226;-68
2023/08/31 04:02:19;;;;;;;1999.90;999.90;;;12.70;99.90;;;;;;5023134;28;20179;-67
2023/08/31 04:04:45;;;;;;;1999.90;999.90;;;12.70;99.90;;;;;;5023932;28;20181;-68
2023/08/31 04:07:11;;;;;;;1999.90;999.90;;;12.70;99.90;;;;;;5024152;28;20195;-68
2023/08/31 04:09:36;;;;;;;1999.90;999.90;;;12.70;99.90;;;;;;5038182;28;20208;-68
2023/08/31 04:12:03;;;;;;;1999.90;999.90;;;12.70;99.90;;;;;;5037761;28;20181;-67
2023/08/31 04:14:29;;;;;;;1999.90;999.90;;;12.80;99.90;;;;;;5020048;28;20210;-67
2023/08/31 04:16:55;;;;;;;1999.90;999.90;;;12.60;99.90;;;;;;5020134;28;20496;-67
2023/08/31 04:19:21;;;;;;;1999.90;999.90;;;12.60;99.90;;;;;;5021440;28;20666;-68
2023/08/31 04:21:47;;;;;;;1999.90;999.90;;;12.60;99.90;;;;;;5023387;28;20472;-68
2023/08/31 04:24:13;;;;;;;1999.90;999.90;;;12.70;99.90;;;;;;5021388;28;20170;-68
2023/08/31 04:26:39;;;;;;;1999.90;999.90;;;12.60;99.90;;;;;;5036968;28;20440;-68
2023/08/31 04:29:05;;;;;;;1999.90;999.90;;;12.50;99.90;;;;;;5021099;28;20175;-67
2023/08/31 04:31:31;;;;;;;1999.90;999.90;;;12.50;99.90;;;;;;5022355;28;20166;-68
2023/08/31 04:33:57;;;;;;;1999.90;999.90;;;12.50;99.90;;;;;;5020900;28;20417;-68
2023/08/31 04:36:23;;;;;;;1999.90;999.90;;;12.70;99.90;;;;;;5022172;28;20460;-67
2023/08/31 04:38:49;;;;;;;1999.90;999.90;;;12.50;99.90;;;;;;5020919;28;20175;-68
2023/08/31 04:41:15;;;;;;;1999.90;999.90;;;12.50;99.90;;;;;;5020100;28;20172;-68
2023/08/31 04:43:41;;;;;;;1999.90;999.90;;;12.40;99.90;;;;;;5036475;28;20505;-68
2023/08/31 04:46:06;;;;;;;1999.90;999.90;;;12.40;99.90;;;;;;5022061;28;20484;-69
2023/08/31 04:48:33;;;;;;;1999.90;999.90;;;12.40;99.90;;;;;;5022208;28;20192;-68
2023/08/31 04:50:58;;;;;;;1999.90;999.90;;;12.40;99.90;;;;;;5020491;28;20181;-68
2023/08/31 04:53:24;;;;;;;1999.90;999.90;;;12.40;99.90;;;;;;5021189;28;20412;-68
2023/08/31 04:55:50;;;;;;;1999.90;999.90;;;12.40;99.90;;;;;;5021886;28;20776;-68
2023/08/31 04:58:16;;;;;;;1999.90;999.90;;;12.40;99.90;;;;;;5019917;28;20436;-69
2023/08/31 05:00:44;;;;;;;1999.90;999.90;;;12.40;99.90;;;;;;5019585;28;20432;-68
2023/08/31 05:03:09;;;;;;;1999.90;999.90;;;12.30;99.90;;;;;;5028488;28;20179;-66
2023/08/31 05:05:35;;;;;;;1999.90;999.90;;;12.40;99.90;;;;;;5027110;28;20831;-69
2023/08/31 05:08:00;;;;;;;1999.90;999.90;;;12.40;99.90;;;;;;5019098;28;20240;-68
2023/08/31 05:10:26;;;;;;;1999.90;999.90;;;12.30;99.90;;;;;;5020316;28;20169;-68
2023/08/31 05:12:51;;;;;;;1999.90;999.90;;;12.30;99.90;;;;;;5019654;28;20177;-67
2023/08/31 05:15:18;;;;;;;1999.90;999.90;;;;;;;;;;5020367;28;20197;-68
2023/08/31 05:17:43;;;;;;;1999.90;999.90;;;12.40;99.90;;;;;;5018893;28;20210;-68
2023/08/31 05:20:09;;;;;;;1999.90;999.90;;;12.30;99.90;;;;;;5020450;28;20908;-68
2023/08/31 05:22:36;;;;;;;1999.90;999.90;;;12.30;99.90;;;;;;5016445;28;20185;-67
2023/08/31 05:25:01;;;;;;;1999.90;999.90;;;12.40;99.90;;;;;;5012064;28;20398;-67
2023/08/31 05:27:27;;;;;;;1999.90;999.90;;;12.30;99.90;;;;;;5012124;28;20443;-67
2023/08/31 05:29:53;;;;;;;1999.90;999.90;;;12.40;99.90;;;;;;5012014;28;20191;-67
2023/08/31 05:32:18;;;;;;;1999.90;999.90;;;12.50;99.90;;;;;;5011653;28;20181;-67
2023/08/31 05:34:44;;;;;;;1999.90;999.90;;;12.50;99.90;;;;;;5012026;28;20665;-67
2023/08/31 05:37:09;;;;;;;1999.90;999.90;;;12.50;99.90;;;;;;5011856;28;20281;-67
2023/08/31 05:39:35;;;;;;;1999.90;999.90;;;12.60;99.90;;;;;;5012179;28;20186;-67
2023/08/31 05:42:01;;;;;;;1999.90;999.90;;;12.50;99.90;;;;;;5010474;28;20264;-67
2023/08/31 05:44:26;;;;;;;1999.90;999.90;;;12.50;99.90;;;;;;5011493;28;20667;-67
2023/08/31 05:46:52;;;;;;;1999.90;999.90;;;12.50;99.90;;;;;;5011305;28;20460;-67
2023/08/31 05:49:17;;;;;;;1999.90;999.90;;;12.60;99.90;;;;;;5011813;28;20202;-67
2023/08/31 05:51:43;;;;;;;1999.90;999.90;;;12.70;99.90;;;;;;5011515;28;20170;-67
2023/08/31 05:54:11;;;;;;;1999.90;999.90;;;12.70;99.90;;;;;;5011741;28;20186;-67
2023/08/31 05:56:39;;;;;;;1999.90;999.90;;;12.70;99.90;;;;;;5011512;28;20571;-67
2023/08/31 05:59:05;;;;;;;1999.90;999.90;;;12.80;99.90;;;;;;5011633;28;20405;-67
2023/08/31 06:01:31;;;;;;;1999.90;999.90;;;12.90;99.90;;;;;;5011400;28;20408;-67
2023/08/31 06:03:56;;;;;;;1999.90;999.90;;;13.00;99.90;;;;;;5011633;28;20429;-67
2023/08/31 06:06:22;;;;;;;1999.90;999.90;;;12.90;99.90;;;;;;5011515;28;20184;-67
2023/08/31 06:08:48;;;;;;;1999.90;999.90;;;13.00;99.90;;;;;;5011718;28;20611;-67
2023/08/31 06:11:13;;;;;;;1999.90;999.90;;;13.00;99.90;;;;;;5011467;28;20263;-67
2023/08/31 06:13:40;;;;;;;1999.90;999.90;;;13.10;99.90;;;;;;5011669;28;20942;-67
2023/08/31 06:16:06;;;;;;;1999.90;999.90;;;13.20;99.90;;;;;;5011375;28;20496;-67
2023/08/31 06:18:31;;;;;;;1999.90;999.90;;;13.20;99.90;;;;;;5012536;28;20433;-67
2023/08/31 06:20:57;;;;;;;1999.90;999.90;;;13.30;99.90;;;;;;5014714;28;20234;-67
2023/08/31 06:23:22;;;;;;;1999.90;999.90;;;13.30;99.90;;;;;;5015232;28;20181;-67
2023/08/31 06:25:48;;;;;;;1999.90;999.90;;;13.40;99.90;;;;;;5014939;28;20271;-67
2023/08/31 06:28:14;;;;;;;1999.90;999.90;;;13.50;99.90;;;;;;5014831;28;20199;-67
2023/08/31 06:30:46;;;;;;;1999.90;999.90;;;13.50;99.90;;;;;;5014775;28;20183;-67
2023/08/31 06:33:11;;;;;;;1999.90;999.90;;;13.50;99.90;;;;;;5014638;28;20258;-67
2023/08/31 06:35:37;;;;;;;1999.90;999.90;;;13.50;99.90;;;;;;5014560;28;21056;-67
2023/08/31 06:38:03;;;;;;;1999.90;999.90;;;13.60;99.90;;;;;;5014642;28;20264;-66
2023/08/31 06:40:28;;;;;;;1999.90;999.90;;;13.70;99.90;;;;;;5015070;28;20233;-67
2023/08/31 06:42:54;;;;;;;1999.90;999.90;;;13.80;99.90;;;;;;5014387;28;20224;-67
2023/08/31 06:45:19;;;;;;;1999.90;999.90;;;13.80;99.90;;;;;;5014579;28;20545;-67
2023/08/31 06:47:45;;;;;;;1999.90;999.90;;;13.80;99.90;;;;;;5014525;28;20196;-67
2023/08/31 06:50:11;;;;;;;1999.90;999.90;;;13.70;99.90;;;;;;5014447;28;20182;-67
2023/08/31 06:52:36;;;;;;;1999.90;999.90;;;13.80;99.90;;;;;;5014200;28;20176;-67
2023/08/31 06:55:03;;;;;;;1999.90;999.90;;;13.90;99.90;;;;;;5014549;28;20639;-67
2023/08/31 06:57:28;;;;;;;1999.90;999.90;;;13.90;99.90;;;;;;5014398;28;20194;-67
2023/08/31 06:59:54;;;;;;;1999.90;999.90;;;14.00;99.90;;;;;;5014344;28;20856;-67
2023/08/31 07:02:22;;;;;;;1999.90;999.90;;;14.10;99.90;;;;;;5014036;28;20173;-68
2023/08/31 07:04:48;;;;;;;1999.90;999.90;;;14.20;99.90;;;;;;5014153;28;20574;-67
2023/08/31 07:07:14;;;;;;;1999.90;999.90;;;14.20;99.90;;;;;;5014099;28;20517;-68
2023/08/31 07:09:42;;;;;;;1999.90;999.90;;;14.20;99.90;;;;;;5014324;28;20550;-68
2023/08/31 07:12:08;;;;;;;1999.90;999.90;;;14.30;99.90;;;;;;5013739;28;20322;-68
2023/08/31 07:14:34;;;;;;;1999.90;999.90;;;14.40;99.90;;;;;;5014055;28;20499;-68
2023/08/31 07:16:59;;;;;;;1999.90;999.90;;;14.50;99.90;;;;;;5013860;28;20214;-68
2023/08/31 07:19:25;;;;;;;1999.90;999.90;;;14.50;99.90;;;;;;5013979;28;20175;-67
2023/08/31 07:21:50;;;;;;;1999.90;999.90;;;14.60;99.90;;;;;;5013725;28;20538;-67
2023/08/31 07:24:16;;;;;;;1999.90;999.90;;;14.60;99.90;;;;;;5013941;28;20176;-68
2023/08/31 07:26:41;;;;;;;1999.90;999.90;;;14.80;99.90;;;;;;5013718;28;20199;-68
2023/08/31 07:29:07;;;;;;;1999.90;999.90;;;14.80;99.90;;;;;;5013452;28;20182;-67
2023/08/31 07:31:32;;;;;;;1999.90;999.90;;;14.90;99.90;;;;;;5012688;28;20172;-68
2023/08/31 07:33:58;;;;;;;1999.90;999.90;;;15.00;99.90;;;;;;5013611;28;20177;-67
2023/08/31 07:36:25;;;;;;;1999.90;999.90;;;15.30;99.90;;;;;;5013537;28;20284;-68
2023/08/31 07:38:50;;;;;;;1999.90;999.90;;;15.30;99.90;;;;;;5013648;28;20250;-68
2023/08/31 07:41:16;;;;;;;1999.90;999.90;;;15.20;99.90;;;;;;5013172;28;20491;-67
2023/08/31 07:43:41;;;;;;;1999.90;999.90;;;15.30;99.90;;;;;;5013499;28;20535;-67
2023/08/31 07:46:07;;;;;;;1999.90;999.90;;;15.50;99.90;;;;;;5013444;28;20180;-68
2023/08/31 07:48:32;;;;;;;1999.90;999.90;;;15.40;99.90;;;;;;5013336;28;20206;-67
2023/08/31 07:50:58;;;;;;;1999.90;999.90;;;15.60;99.90;;;;;;5013137;28;20180;-68
2023/08/31 07:53:23;;;;;;;1999.90;999.90;;;15.60;99.90;;;;;;5013380;28;20260;-68
2023/08/31 07:55:56;;;;;;;1999.90;999.90;;;15.60;99.90;;;;;;5013182;28;20199;-67
2023/08/31 07:58:23;;;;;;;1999.90;999.90;;;15.80;99.90;;;;;;5013253;28;20200;-67
2023/08/31 08:00:52;;;;;;;1999.90;999.90;;;15.80;99.90;;;;;;5013126;28;20770;-67
2023/08/31 08:03:17;;;;;;;1999.90;999.90;;;15.80;99.90;;;;;;5012963;28;20408;-67
2023/08/31 08:05:43;;;;;;;1999.90;999.90;;;15.90;99.90;;;;;;5013118;28;20531;-67
2023/08/31 08:08:08;;;;;;;1999.90;999.90;;;16.00;99.90;;;;;;5012985;28;20243;-67
2023/08/31 08:10:35;;;;;;;1999.90;999.90;;;16.00;99.90;;;;;;5012871;28;20230;-67
2023/08/31 08:13:01;;;;;;;1999.90;999.90;;;16.10;99.90;;;;;;5012726;28;20404;-67
2023/08/31 08:15:26;;;;;;;1999.90;999.90;;;16.10;99.90;;;;;;5012873;28;20197;-67
2023/08/31 08:17:53;;;;;;;1999.90;999.90;;;16.20;99.90;;;;;;5012646;28;20289;-67
2023/08/31 08:20:19;;;;;;;1999.90;999.90;;;16.20;99.90;;;;;;5012691;28;20264;-67
2023/08/31 08:22:45;;;;;;;1999.90;999.90;;;16.20;99.90;;;;;;5012412;28;20445;-67
2023/08/31 08:25:11;;;;;;;1999.90;999.90;;;16.30;99.90;;;;;;5012161;28;20174;-67
2023/08/31 08:27:36;;;;;;;1999.90;999.90;;;16.30;99.90;;;;;;5012939;28;20201;-68
2023/08/31 08:30:03;;;;;;;1999.90;999.90;;;16.30;99.90;;;;;;5012672;28;20176;-67
2023/08/31 08:32:28;;;;;;;1999.90;999.90;;;16.40;99.90;;;;;;5012077;28;20182;-68
2023/08/31 08:34:54;;;;;;;1999.90;999.90;;;16.40;99.90;;;;;;5008043;28;20542;-68
2023/08/31 08:37:20;;;;;;;1999.90;999.90;;;16.50;99.90;;;;;;5007333;28;20250;-67
2023/08/31 08:39:51;;;;;;;1999.90;999.90;;;16.60;99.90;;;;;;5008665;28;20619;-67
2023/08/31 08:42:19;;;;;;;1999.90;999.90;;;16.70;99.90;;;;;;5007435;28;20219;-68
2023/08/31 08:44:45;;;;;;;1999.90;999.90;;;16.70;99.90;;;;;;5008103;28;20424;-68
2023/08/31 08:47:12;;;;;;;1999.90;999.90;;;16.80;99.90;;;;;;5008654;28;20521;-68
2023/08/31 08:49:38;;;;;;;1999.90;999.90;;;16.90;99.90;;;;;;5007586;28;20425;-67
2023/08/31 08:52:04;;;;;;;1999.90;999.90;;;16.90;99.90;;;;;;5011108;28;20427;-67
2023/08/31 08:54:29;;;;;;;1999.90;999.90;;;17.10;99.90;;;;;;5019185;28;20422;-69
2023/08/31 08:56:56;;;;;;;1999.90;999.90;;;17.10;99.90;;;;;;5011933;28;20469;-67
2023/08/31 08:59:22;;;;;;;1999.90;999.90;;;17.10;99.90;;;;;;5001029;28;20262;-66
2023/08/31 09:01:48;;;;;;;1999.90;999.90;;;17.10;99.90;;;;;;5015989;28;20497;-67
2023/08/31 09:04:15;;;;;;;1999.90;999.90;;;17.10;99.90;;;;;;5012666;28;20626;-67
2023/08/31 09:06:40;;;;;;;1999.90;999.90;;;17.20;99.90;;;;;;5007836;28;20813;-67
2023/08/31 09:09:09;;;;;;;1999.90;999.90;;;17.30;99.90;;;;;;5008181;28;20419;-67
2023/08/31 09:11:35;;;;;;;1999.90;999.90;;;17.50;99.90;;;;;;5013039;28;20195;-67
2023/08/31 09:14:17;;;;;;;1999.90;999.90;;;17.60;99.90;;;;;;5010254;28;20811;-67
2023/08/31 09:16:47;;;;;;;1999.90;999.90;;;17.70;99.90;;;;;;5014471;28;20491;-67
2023/08/31 09:19:23;;;;;;;1999.90;999.90;;;17.80;99.90;;;;;;5007183;28;20470;-67
2023/08/31 09:21:50;;;;;;;1999.90;999.90;;;18.00;99.90;;;;;;5007145;28;20415;-68
2023/08/31 09:24:18;;;;;;;1999.90;999.90;;;18.00;99.90;;;;;;5008511;28;20499;-67
2023/08/31 09:26:46;;;;;;;1999.90;999.90;;;18.20;99.90;;;;;;5007788;28;21198;-68
2023/08/31 09:29:12;;;;;;;1999.90;999.90;;;18.30;99.90;;;;;;5007581;28;20433;-67
2023/08/31 09:31:37;;;;;;;1999.90;999.90;;;18.30;99.90;;;;;;5007889;28;20427;-68
2023/08/31 09:34:03;;;;;;;1999.90;999.90;;;18.30;99.90;;;;;;5008111;28;20874;-67
2023/08/31 09:36:29;;;;;;;1999.90;999.90;;;18.80;99.90;;;;;;5007419;28;20636;-68
2023/08/31 09:38:58;;;;;;;1999.90;999.90;;;18.40;99.90;;;;;;5008057;28;20673;-67
2023/08/31 09:41:24;;;;;;;1999.90;999.90;;;18.50;99.90;;;;;;5008142;28;20271;-67
2023/08/31 09:43:49;;;;;;;1999.90;999.90;;;18.50;99.90;;;;;;5007660;28;20487;-67
2023/08/31 09:46:15;;;;;;;1999.90;999.90;;;18.50;99.90;;;;;;5007964;28;20232;-72
2023/08/31 09:48:42;;;;;;;1999.90;999.90;;;18.50;99.90;;;;;;5006917;28;20740;-69
2023/08/31 09:51:10;;;;;;;1999.90;999.90;;;18.50;99.90;;;;;;5006704;28;20925;-66
2023/08/31 09:53:37;;;;;;;1999.90;999.90;;;18.60;99.90;;;;;;5007967;28;20423;-72
2023/08/31 09:56:05;;;;;;;1999.90;999.90;;;18.60;99.90;;;;;;5011719;28;20463;-68
2023/08/31 09:58:32;;;;;;;1999.90;999.90;;;18.60;99.90;;;;;;5010161;28;20518;-67
2023/08/31 10:00:58;;;;;;;1999.90;999.90;;;18.70;99.90;;;;;;5010118;28;20466;-69
2023/08/31 10:03:27;;;;;;;1999.90;999.90;;;18.80;99.90;;;;;;5011475;28;20468;-70
2023/08/31 10:05:54;;;;;;;1999.90;999.90;;;18.90;99.90;;;;;;5011013;28;20474;-68
2023/08/31 10:08:19;;;;;;;1999.90;999.90;;;19.00;99.90;;;;;;5009898;28;20516;-67
2023/08/31 10:10:45;;;;;;;1999.90;999.90;;;19.30;99.90;;;;;;5010998;28;20494;-70
2023/08/31 10:13:11;;;;;;;1999.90;999.90;;;19.40;99.90;;;;;;5010792;28;20192;-67
2023/08/31 10:15:37;;;;;;;1999.90;999.90;;;19.60;99.90;;;;;;5010022;28;20459;-67
2023/08/31 10:18:04;;;;;;;1999.90;999.90;;;19.50;99.90;;;;;;5010714;28;20206;-71
2023/08/31 10:20:34;;;;;;;1999.90;999.90;;;19.50;99.90;;;;;;5011731;28;21230;-69
2023/08/31 10:23:03;;;;;;;1999.90;999.90;;;19.30;99.90;;;;;;5010070;28;20473;-66
2023/08/31 10:25:53;;;;;;;1999.90;999.90;;;19.30;99.90;;;;;;5010619;28;20500;-67
2023/08/31 10:28:28;;;;;;;1999.90;999.90;;;19.40;99.90;;;;;;5010118;28;20932;-67
2023/08/31 10:31:10;;;;;;;1999.90;999.90;;;19.40;99.90;;;;;;5010627;28;20417;-67
2023/08/31 10:34:05;;;;;;;1999.90;999.90;;;19.70;99.90;;;;;;4991846;28;20463;-67
2023/08/31 10:36:43;;;;;;;1999.90;999.90;;;19.90;99.90;;;;;;4990772;28;20551;-69
2023/08/31 10:39:17;;;;;;;1999.90;999.90;;;19.80;99.90;;;;;;4990806;28;20505;-70
2023/08/31 10:41:52;;;;;;;1999.90;999.90;;;19.70;99.90;;;;;;4990476;28;20627;-67
2023/08/31 10:44:30;;;;;;;1999.90;999.90;;;19.70;99.90;;;;;;4990793;28;20766;-67
2023/08/31 10:46:59;;;;;;;1999.90;999.90;;;19.80;99.90;;;;;;4990709;28;20445;-68
2023/08/31 10:49:25;;;;;;;1999.90;999.90;;;20.00;99.90;;;;;;4990531;28;20417;-68
2023/08/31 10:52:14;;;;;;;1999.90;999.90;;;19.80;99.90;;;;;;4991105;28;20417;-68
2023/08/31 10:54:40;;;;;;;1999.90;999.90;;;19.90;99.90;;;;;;4990612;28;20173;-68
2023/08/31 10:57:06;;;;;;;1999.90;999.90;;;19.90;99.90;;;;;;4991172;28;20503;-66
2023/08/31 10:59:51;;;;;;;1999.90;999.90;;;20.20;99.90;;;;;;4990640;28;20575;-66
2023/08/31 11:02:36;;;;;;;1999.90;999.90;;;20.40;99.90;;;;;;4990876;28;20405;-70
2023/08/31 11:05:14;;;;;;;1999.90;999.90;;;20.50;99.90;;;;;;4990181;28;20411;-70
2023/08/31 11:07:41;;;;;;;1999.90;999.90;;;20.70;99.90;;;;;;4990349;28;20485;-68
2023/08/31 11:10:10;;;;;;;1999.90;999.90;;;20.60;99.90;;;;;;5008698;28;20422;-66
2023/08/31 11:12:36;;;;;;;1999.90;999.90;;;20.30;99.90;;;;;;5009413;28;20461;-70
2023/08/31 11:15:03;;;;;;;1999.90;999.90;;;20.20;99.90;;;;;;5009400;28;20850;-66
2023/08/31 11:17:29;;;;;;;1999.90;999.90;;;20.10;99.90;;;;;;5009571;28;20491;-72
2023/08/31 11:19:56;;;;;;;1999.90;999.90;;;19.90;99.90;;;;;;5009746;28;20439;-66
2023/08/31 11:22:21;;;;;;;1999.90;999.90;;;20.00;99.90;;;;;;5009044;28;20654;-66
2023/08/31 11:24:47;;;;;;;1999.90;999.90;;;20.10;99.90;;;;;;5009751;28;20412;-72
2023/08/31 11:27:13;;;;;;;1999.90;999.90;;;20.10;99.90;;;;;;5009509;28;20204;-67
2023/08/31 11:29:43;;;;;;;1999.90;999.90;;;20.10;99.90;;;;;;5009860;28;20234;-67
2023/08/31 11:32:09;;;;;;;1999.90;999.90;;;20.10;99.90;;;;;;5013216;28;20779;-68
2023/08/31 11:34:36;;;;;;;1999.90;999.90;;;20.10;99.90;;;;;;5013330;28;20425;-68
2023/08/31 11:37:02;;;;;;;1999.90;999.90;;;20.00;99.90;;;;;;5014000;28;20204;-69
2023/08/31 11:39:28;;;;;;;1999.90;999.90;;;20.00;99.90;;;;;;5014002;28;20405;-67
2023/08/31 11:41:54;;;;;;;1999.90;999.90;;;20.10;99.90;;;;;;5012909;28;20408;-70
2023/08/31 11:44:20;;;;;;;1999.90;999.90;;;20.50;99.90;;;;;;5014278;28;20176;-70
2023/08/31 11:46:50;;;;;;;1999.90;999.90;;;20.90;99.90;;;;;;5014124;28;20433;-70
2023/08/31 11:49:17;;;;;;;1999.90;999.90;;;21.30;99.90;;;;;;5013636;28;20210;-69
2023/08/31 11:51:43;;;;;;;1999.90;999.90;;;21.50;99.90;;;;;;5013051;28;20417;-69
2023/08/31 11:54:10;;;;;;;1999.90;999.90;;;21.30;99.90;;;;;;5012811;28;20425;-68
2023/08/31 11:56:44;;;;;;;1999.90;999.90;;;21.00;99.90;;;;;;5013126;28;20434;-68
2023/08/31 11:59:11;;;;;;;1999.90;999.90;;;20.60;99.90;;;;;;5013425;28;20503;-68